EJA220 KSGR-KARR
Flight info
| Callsign | EJA220 |
|---|---|
| Flight time | N/A |
| Altitude | 41000 |
| Route | INDIE8 TPAKK LIT PLANO |
| Aircraft | CL60/M-SBDE1E2E3FGHIJ1J4J5J7M3RWXYZ/LB1V1D1 |
Departure
| Time | 2026-04-23 15:26 |
|---|---|
| Airport | Sugar Land Regional Airport (KSGR) |
Arrival
| Time | N/A |
|---|---|
| Airport | Aurora Municipal Airport (KARR) |
| Time | Latitude | Longitude | Altitude | Speed | Heading |
|---|---|---|---|---|---|
| 2026-04-23 15:03 | 29.62890 | -95.65544 | 85 ft | 0 kts | 86° |
| 2026-04-23 15:14 | 29.62891 | -95.65544 | 85 ft | 0 kts | 91° |
| 2026-04-23 15:22 | 29.62891 | -95.65543 | 85 ft | 1 kts | 94° |
| 2026-04-23 15:23 | 29.62877 | -95.65588 | 85 ft | 11 kts | 290° |
| 2026-04-23 15:23 | 29.62896 | -95.65651 | 85 ft | 8 kts | 335° |
| 2026-04-23 15:23 | 29.62969 | -95.65662 | 85 ft | 12 kts | 356° |
| 2026-04-23 15:23 | 29.63069 | -95.65672 | 85 ft | 16 kts | 355° |
| 2026-04-23 15:24 | 29.63196 | -95.65682 | 85 ft | 15 kts | 354° |
| 2026-04-23 15:24 | 29.63265 | -95.65691 | 85 ft | 9 kts | 353° |
| 2026-04-23 15:24 | 29.63286 | -95.65694 | 85 ft | 1 kts | 340° |
| 2026-04-23 15:24 | 29.63307 | -95.65711 | 85 ft | 6 kts | 308° |
| 2026-04-23 15:25 | 29.63303 | -95.65756 | 85 ft | 6 kts | 190° |
| 2026-04-23 15:25 | 29.63275 | -95.65754 | 85 ft | 17 kts | 175° |
| 2026-04-23 15:25 | 29.62804 | -95.65707 | 85 ft | 119 kts | 175° |
| 2026-04-23 15:25 | 29.61761 | -95.65624 | 463 ft | 171 kts | 174° |
| 2026-04-23 15:26 | 29.60455 | -95.65527 | 1303 ft | 206 kts | 173° |
| 2026-04-23 15:26 | 29.59147 | -95.65065 | 2731 ft | 209 kts | 143° |
| 2026-04-23 15:26 | 29.58297 | -95.63639 | 3725 ft | 240 kts | 107° |
| 2026-04-23 15:26 | 29.58415 | -95.61687 | 4866 ft | 264 kts | 70° |
| 2026-04-23 15:27 | 29.59492 | -95.59917 | 5942 ft | 287 kts | 41° |
| 2026-04-23 15:27 | 29.61214 | -95.58827 | 7409 ft | 288 kts | 22° |
| 2026-04-23 15:27 | 29.63022 | -95.57919 | 8875 ft | 286 kts | 23° |
| 2026-04-23 15:27 | 29.64805 | -95.56960 | 10182 ft | 288 kts | 22° |
| 2026-04-23 15:28 | 29.66605 | -95.55992 | 11414 ft | 292 kts | 22° |
| 2026-04-23 15:28 | 29.68455 | -95.54998 | 12603 ft | 297 kts | 22° |
| 2026-04-23 15:28 | 29.70304 | -95.54005 | 13763 ft | 301 kts | 22° |
| 2026-04-23 15:28 | 29.72220 | -95.52976 | 14843 ft | 307 kts | 22° |
| 2026-04-23 15:29 | 29.74157 | -95.51936 | 15854 ft | 312 kts | 22° |
| 2026-04-23 15:29 | 29.76140 | -95.50871 | 16815 ft | 319 kts | 21° |
| 2026-04-23 15:29 | 29.78154 | -95.49789 | 17759 ft | 324 kts | 21° |
| 2026-04-23 15:29 | 29.80207 | -95.48686 | 18703 ft | 328 kts | 21° |
| 2026-04-23 15:30 | 29.82262 | -95.47581 | 19636 ft | 331 kts | 20° |
| 2026-04-23 15:30 | 29.84349 | -95.46458 | 20545 ft | 334 kts | 21° |
| 2026-04-23 15:30 | 29.86484 | -95.45310 | 21383 ft | 339 kts | 20° |
| 2026-04-23 15:30 | 29.88621 | -95.44160 | 22217 ft | 342 kts | 20° |
| 2026-04-23 15:31 | 29.90770 | -95.43004 | 23022 ft | 346 kts | 20° |
| 2026-04-23 15:31 | 29.92914 | -95.41849 | 23800 ft | 350 kts | 20° |
| 2026-04-23 15:31 | 29.95145 | -95.40648 | 24567 ft | 355 kts | 20° |
| 2026-04-23 15:31 | 29.97375 | -95.39445 | 25366 ft | 358 kts | 19° |
| 2026-04-23 15:32 | 29.99648 | -95.38221 | 26078 ft | 363 kts | 19° |
| 2026-04-23 15:32 | 30.01953 | -95.36977 | 26799 ft | 367 kts | 19° |
| 2026-04-23 15:32 | 30.04305 | -95.35709 | 27461 ft | 372 kts | 19° |
| 2026-04-23 15:32 | 30.06636 | -95.34450 | 28072 ft | 376 kts | 19° |
| 2026-04-23 15:33 | 30.09038 | -95.33153 | 28689 ft | 380 kts | 19° |
| 2026-04-23 15:33 | 30.11442 | -95.31853 | 29285 ft | 384 kts | 19° |
| 2026-04-23 15:33 | 30.13887 | -95.30531 | 29881 ft | 387 kts | 19° |
| 2026-04-23 15:33 | 30.16323 | -95.29212 | 30427 ft | 390 kts | 19° |
| 2026-04-23 15:34 | 30.18818 | -95.27861 | 30967 ft | 393 kts | 19° |
| 2026-04-23 15:34 | 30.21277 | -95.26528 | 31507 ft | 394 kts | 18° |
| 2026-04-23 15:34 | 30.23786 | -95.25169 | 31956 ft | 398 kts | 18° |
| 2026-04-23 15:34 | 30.26286 | -95.23813 | 32430 ft | 400 kts | 18° |
| 2026-04-23 15:35 | 30.28840 | -95.22437 | 32858 ft | 402 kts | 17° |
| 2026-04-23 15:35 | 30.31446 | -95.21308 | 33231 ft | 400 kts | 11° |
| 2026-04-23 15:35 | 30.34109 | -95.20285 | 33622 ft | 402 kts | 11° |
| 2026-04-23 15:35 | 30.36754 | -95.19262 | 34117 ft | 403 kts | 11° |
| 2026-04-23 15:36 | 30.39417 | -95.18228 | 34737 ft | 400 kts | 11° |
| 2026-04-23 15:36 | 30.42025 | -95.17214 | 35368 ft | 396 kts | 11° |
| 2026-04-23 15:36 | 30.44640 | -95.16157 | 35991 ft | 395 kts | 14° |
| 2026-04-23 15:36 | 30.47113 | -95.14781 | 36531 ft | 398 kts | 20° |
| 2026-04-23 15:37 | 30.49573 | -95.13254 | 37036 ft | 395 kts | 20° |
| 2026-04-23 15:37 | 30.51993 | -95.11756 | 37487 ft | 394 kts | 20° |
| 2026-04-23 15:37 | 30.53594 | -95.10765 | 37728 ft | 395 kts | 20° |
| 2026-04-23 15:37 | 30.56852 | -95.08750 | 38188 ft | 395 kts | 20° |
| 2026-04-23 15:38 | 30.59274 | -95.07247 | 38572 ft | 394 kts | 21° |
| 2026-04-23 15:38 | 30.61677 | -95.05713 | 38918 ft | 394 kts | 21° |
| 2026-04-23 15:38 | 30.64082 | -95.04166 | 39203 ft | 395 kts | 21° |
| 2026-04-23 15:38 | 30.66467 | -95.02631 | 39524 ft | 394 kts | 21° |
| 2026-04-23 15:39 | 30.68873 | -95.01083 | 39749 ft | 394 kts | 21° |
| 2026-04-23 15:39 | 30.71281 | -94.99532 | 39952 ft | 395 kts | 21° |
| 2026-04-23 15:39 | 30.73711 | -94.97968 | 40172 ft | 396 kts | 21° |
| 2026-04-23 15:39 | 30.76111 | -94.96421 | 40353 ft | 397 kts | 21° |
| 2026-04-23 15:40 | 30.78522 | -94.94867 | 40535 ft | 397 kts | 21° |
| 2026-04-23 15:40 | 30.80942 | -94.93306 | 40697 ft | 398 kts | 21° |
| 2026-04-23 15:40 | 30.83362 | -94.91743 | 40907 ft | 397 kts | 21° |
| 2026-04-23 15:41 | 30.88257 | -94.88584 | 40986 ft | 405 kts | 21° |
| 2026-04-23 15:41 | 30.93238 | -94.85367 | 40984 ft | 413 kts | 21° |
| 2026-04-23 15:42 | 30.98298 | -94.82092 | 40985 ft | 420 kts | 21° |
| 2026-04-23 15:42 | 31.03458 | -94.78748 | 40982 ft | 427 kts | 21° |
| 2026-04-23 15:43 | 31.08694 | -94.75350 | 40992 ft | 433 kts | 22° |
| 2026-04-23 15:43 | 31.13992 | -94.71906 | 40994 ft | 438 kts | 22° |
| 2026-04-23 15:44 | 31.19380 | -94.68399 | 40995 ft | 443 kts | 22° |
| 2026-04-23 15:44 | 31.24813 | -94.64858 | 40993 ft | 446 kts | 22° |
| 2026-04-23 15:45 | 31.30231 | -94.61320 | 40989 ft | 447 kts | 22° |
| 2026-04-23 15:45 | 31.35669 | -94.57765 | 40991 ft | 446 kts | 22° |
| 2026-04-23 15:46 | 31.41111 | -94.54202 | 40992 ft | 446 kts | 22° |
| 2026-04-23 15:46 | 31.46527 | -94.50654 | 40984 ft | 446 kts | 22° |
| 2026-04-23 15:47 | 31.51912 | -94.47012 | 40981 ft | 447 kts | 24° |
| 2026-04-23 15:47 | 31.57288 | -94.43264 | 40993 ft | 447 kts | 24° |
| 2026-04-23 15:48 | 31.62656 | -94.39520 | 40989 ft | 447 kts | 24° |
| 2026-04-23 15:48 | 31.67986 | -94.35798 | 40990 ft | 447 kts | 24° |
| 2026-04-23 15:49 | 31.73373 | -94.32032 | 40997 ft | 447 kts | 24° |
| 2026-04-23 15:49 | 31.78738 | -94.28277 | 41000 ft | 448 kts | 24° |
| 2026-04-23 15:50 | 31.84092 | -94.24525 | 40998 ft | 448 kts | 24° |
| 2026-04-23 15:50 | 31.89443 | -94.20770 | 40992 ft | 448 kts | 24° |
| 2026-04-23 15:51 | 31.94843 | -94.16975 | 40992 ft | 448 kts | 25° |
| 2026-04-23 15:51 | 32.00200 | -94.13206 | 40990 ft | 449 kts | 25° |
| 2026-04-23 15:52 | 32.05548 | -94.09438 | 40995 ft | 449 kts | 25° |
| 2026-04-23 15:52 | 32.10959 | -94.05621 | 40992 ft | 450 kts | 25° |
| 2026-04-23 15:53 | 32.16354 | -94.01809 | 40985 ft | 450 kts | 25° |
| 2026-04-23 15:53 | 32.21726 | -93.98008 | 40992 ft | 449 kts | 25° |
| 2026-04-23 15:54 | 32.27069 | -93.94222 | 40997 ft | 449 kts | 25° |
| 2026-04-23 15:54 | 32.32457 | -93.90401 | 40999 ft | 450 kts | 25° |
| 2026-04-23 15:55 | 32.37843 | -93.86575 | 41004 ft | 451 kts | 25° |
| 2026-04-23 15:55 | 32.43245 | -93.82732 | 41006 ft | 452 kts | 25° |
| 2026-04-23 15:56 | 32.48632 | -93.78893 | 41011 ft | 452 kts | 25° |
| 2026-04-23 15:56 | 32.54054 | -93.75025 | 41012 ft | 452 kts | 25° |
| 2026-04-23 15:57 | 32.59443 | -93.71175 | 41007 ft | 452 kts | 25° |
| 2026-04-23 15:57 | 32.64847 | -93.67308 | 41007 ft | 452 kts | 25° |
| 2026-04-23 15:58 | 32.70238 | -93.63445 | 41001 ft | 453 kts | 26° |
| 2026-04-23 15:58 | 32.75624 | -93.59581 | 41000 ft | 453 kts | 26° |
| 2026-04-23 15:59 | 32.81041 | -93.55688 | 40985 ft | 454 kts | 26° |
| 2026-04-23 15:59 | 32.86433 | -93.51807 | 40988 ft | 454 kts | 26° |
| 2026-04-23 16:00 | 32.91857 | -93.47900 | 40983 ft | 454 kts | 26° |
| 2026-04-23 16:00 | 32.97273 | -93.43991 | 40989 ft | 455 kts | 26° |
| 2026-04-23 16:01 | 33.02722 | -93.40161 | 40989 ft | 454 kts | 25° |
| 2026-04-23 16:01 | 33.08231 | -93.36396 | 40986 ft | 454 kts | 25° |
| 2026-04-23 16:02 | 33.13746 | -93.32617 | 41002 ft | 454 kts | 25° |
| 2026-04-23 16:02 | 33.19240 | -93.28848 | 41003 ft | 455 kts | 26° |
| 2026-04-23 16:03 | 33.24747 | -93.25062 | 41004 ft | 455 kts | 26° |
| 2026-04-23 16:03 | 33.30240 | -93.21281 | 41005 ft | 456 kts | 26° |
| 2026-04-23 16:04 | 33.35773 | -93.17465 | 40991 ft | 456 kts | 26° |
| 2026-04-23 16:04 | 33.41251 | -93.13682 | 40976 ft | 457 kts | 26° |
| 2026-04-23 16:05 | 33.45852 | -93.10500 | 40969 ft | 457 kts | 26° |
| 2026-04-23 16:05 | 33.52272 | -93.06052 | 40979 ft | 457 kts | 26° |
| 2026-04-23 16:06 | 33.57782 | -93.02230 | 40984 ft | 457 kts | 26° |
| 2026-04-23 16:06 | 33.63302 | -92.98395 | 40992 ft | 458 kts | 26° |
| 2026-04-23 16:07 | 33.68795 | -92.94572 | 40986 ft | 458 kts | 26° |
| 2026-04-23 16:07 | 33.74324 | -92.90717 | 40994 ft | 458 kts | 26° |
| 2026-04-23 16:08 | 33.79843 | -92.86865 | 40985 ft | 459 kts | 26° |
| 2026-04-23 16:08 | 33.85366 | -92.83004 | 40984 ft | 460 kts | 27° |
| 2026-04-23 16:09 | 33.90901 | -92.79129 | 40980 ft | 460 kts | 27° |
| 2026-04-23 16:09 | 33.96457 | -92.75234 | 40983 ft | 461 kts | 27° |
| 2026-04-23 16:10 | 34.02018 | -92.71328 | 40987 ft | 461 kts | 27° |
| 2026-04-23 16:10 | 34.07573 | -92.67420 | 40982 ft | 462 kts | 27° |
| 2026-04-23 16:11 | 34.13147 | -92.63493 | 40985 ft | 462 kts | 27° |
| 2026-04-23 16:11 | 34.18688 | -92.59583 | 40976 ft | 463 kts | 27° |
| 2026-04-23 16:12 | 34.24258 | -92.55648 | 40985 ft | 463 kts | 27° |
| 2026-04-23 16:12 | 34.29852 | -92.51688 | 40982 ft | 463 kts | 27° |
| 2026-04-23 16:13 | 34.35431 | -92.47733 | 40984 ft | 464 kts | 27° |
| 2026-04-23 16:13 | 34.43771 | -92.41809 | 40995 ft | 464 kts | 27° |
| 2026-04-23 16:14 | 34.49355 | -92.37835 | 40996 ft | 464 kts | 27° |
| 2026-04-23 16:14 | 34.54927 | -92.33864 | 40995 ft | 465 kts | 28° |
| 2026-04-23 16:15 | 34.60553 | -92.29848 | 40996 ft | 465 kts | 28° |
| 2026-04-23 16:15 | 34.66131 | -92.25859 | 40999 ft | 466 kts | 28° |
| 2026-04-23 16:16 | 34.71770 | -92.21820 | 41005 ft | 466 kts | 28° |
| 2026-04-23 16:16 | 34.77359 | -92.17811 | 41008 ft | 466 kts | 28° |
| 2026-04-23 16:17 | 34.83102 | -92.14167 | 41011 ft | 463 kts | 19° |
| 2026-04-23 16:17 | 34.89140 | -92.11330 | 41011 ft | 463 kts | 19° |
| 2026-04-23 16:18 | 34.95147 | -92.08498 | 41013 ft | 464 kts | 19° |
| 2026-04-23 16:18 | 35.01175 | -92.05649 | 41001 ft | 465 kts | 19° |
| 2026-04-23 16:19 | 35.06243 | -92.03249 | 41001 ft | 465 kts | 19° |